Sines, Portugal

12:33 PM WEST on July 11, 2014 (GMT +0100)
Sines - ZIL2 (ISETBALS6) Elev 167 ft | 37.96 °N, 8.85 °W | Change Station

Current weather conditions updated 2 minutes ago

Clear
Clear
79.3 °F
Feels Like 80 °F
N
9.0
Wind Variable Wind from North
Gusts 13.0 mph

Today is forecast to be nearly the same temperature as yesterday.

Today
High -- | Low -- °F
--% Chance of Precip.
Yesterday
High -- | Low -- °F
Precip. -- in
6:22 AM 8:59 PM
Waxing Gibbous, 99% visible
Pressure 30.04 in
Visibility -9999.0 miles
Clouds
Heat Index 80 °F
Dew Point 55 °F
Humidity 43%
Rainfall 0.00 in
Snow Depth Not available.
UV Not available.
Pollen Not available.
Air Quality Not available.
Flu Activity Not available.
METAR LPMT 111100Z 35010KT CAVOK 28/10 Q1017

More Conditions Fewer Conditions

Pressure 30.04 in
Visibility -9999.0 miles
Clouds
Heat Index 80 °F
Dew Point 55 °F
Humidity 43%
Rainfall 0.00 in
Snow Depth Not available.
UV Not available.
Pollen Not available.
Air Quality Not available.
Flu Activity Not available.
METAR LPMT 111100Z 35010KT CAVOK 28/10 Q1017

More Conditions Fewer Conditions

10-Day Weather Forecast

Almanac

Astronomy

Jul. 11, 2014 Rise Set
Actual Time 6:22 AM WEST 8:59 PM WEST
Civil Twilight 5:51 AM WEST 9:30 PM WEST
Nautical Twilight 5:13 AM WEST 10:08 PM WEST
Astronomical Twilight 4:30 AM WEST 10:51 PM WEST
Moon 7:58 PM WEST 5:19 AM WEST
Length of Visible Light 15h 38m
Length of Day
14h 37m
Tomorrow will be 1m 5s shorter.
Waxing Gibbous, 99% of the Moon is Illuminated
Today
Waxing Gibbous
Jul 12
Full
Jul 18
Last Quarter
Jul 26
New
Aug 3
First Quarter

Yesterday's Extremes

Country Highs Country Lows

Community

WunderPhotos

Upload Photos

1,732,425 photos uploaded!

WunderBlogs® & News

Nearby

Snow Depth

Not available.

Earthquake Activity

City Distance Mag. Time & Date
No recent earthquake activity has been reported nearby.
Minimum magnitude displayed is 2.5.

Coastal Water Temperatures

Place Temperature
No Stations Reporting

Nearby Weather Stations

Station Location Temp. Heat Index Dew Point Humidity Wind Precip. Elev Updated Type
Sines - ZIL2, Sines 79.3 °F 80 °F 55 °F 43% North  at  9.0 mph 0.00 in / hr 167 ft 12:31 PM WEST Normal

Show More Stations Show Fewer Stations